ADDS METAR Data INFO
IDs: Format: Raw Decoded Include TAF

Data at: 1957 UTC 15 Dec 2017

KF46 151935Z AUTO 31005KT 10SM CLR 11/M02 A3026 RMK AO2 T01051025
KF46 151915Z AUTO 31007KT 10SM CLR 11/M03 A3027 RMK AO2 T01081032
KF46 151855Z AUTO 28005G08KT 10SM CLR 11/M02 A3028 RMK AO2 T01061016
KF46 151835Z AUTO 27003KT 10SM CLR 11/00 A3029 RMK AO2 T01050000
KF46 151815Z AUTO 35005KT 10SM CLR 10/M01 A3030 RMK AO2 T01011010
KF46 151755Z AUTO 33005KT 10SM CLR 10/00 A3031 RMK AO2 T00970000 10097 20017
KF46 151735Z AUTO 33007KT 10SM CLR 09/00 A3031 RMK AO2 T00920004
KF46 151715Z AUTO 33008KT 10SM CLR 08/00 A3031 RMK AO2 T00790000
KF46 151655Z AUTO 35006KT 10SM CLR 08/00 A3032 RMK AO2 T00810001
KF46 151635Z AUTO 34007KT 10SM CLR 08/00 A3034 RMK AO2 T00790003
KF46 151615Z AUTO 34007KT 10SM CLR 07/00 A3033 RMK AO2 T00700001
KF46 151555Z AUTO 31010KT 10SM CLR 07/00 A3033 RMK AO2 T00660001
KF46 151535Z AUTO 33010KT 10SM CLR 06/00 A3032 RMK AO2 T00600001
KF46 151515Z AUTO 33007KT 10SM CLR 05/00 A3032 RMK AO2 T00540000
KF46 151455Z AUTO 32008KT 10SM CLR 05/00 A3032 RMK AO2 T00500000
KF46 151435Z AUTO 32006KT 10SM CLR 04/00 A3031 RMK AO2 T00401003
KF46 151415Z AUTO 33007KT 10SM CLR 03/00 A3030 RMK AO2 T00321005
KF46 151355Z AUTO 33003KT 10SM CLR 02/M01 A3029 RMK AO2 T00201011
KF46 151335Z AUTO 32004KT 10SM CLR 02/M01 A3029 RMK AO2 T00221015
KF46 151315Z AUTO 30004KT 10SM CLR 02/M02 A3029 RMK AO2 T00211016
KF46 151255Z AUTO 28004KT 10SM CLR 02/M02 A3029 RMK AO2 T00171019
KF46 151235Z AUTO 29005KT 10SM CLR 02/M02 A3028 RMK AO2 T00211020
KF46 151215Z AUTO 29003KT 10SM CLR 02/M02 A3027 RMK AO2 T00211020
KF46 151155Z AUTO 30005KT 10SM CLR 02/M02 A3027 RMK AO2 T00201020 10060 20015
KF46 151135Z AUTO 32003KT 10SM CLR 02/M01 A3026 RMK AO2 T00211010
KF46 151115Z AUTO 00000KT 10SM CLR 02/M01 A3024 RMK AO2 T00201011
KF46 151055Z AUTO 00000KT 10SM CLR 02/M01 A3024 RMK AO2 T00211010
KF46 151035Z AUTO 30003KT 10SM CLR 03/00 A3024 RMK AO2 T00271005
KF46 151015Z AUTO 00000KT 10SM CLR 02/M01 A3024 RMK AO2 T00241009
KF46 150955Z AUTO 00000KT 10SM CLR 02/M01 A3023 RMK AO2 T00151011
KF46 150935Z AUTO 00000KT 10SM CLR 02/M01 A3023 RMK AO2 T00201012
KF46 150915Z AUTO 00000KT 10SM CLR 02/M01 A3023 RMK AO2 T00211015
KF46 150855Z AUTO 00000KT 10SM CLR 03/M01 A3023 RMK AO2 T00301015
KF46 150835Z AUTO 00000KT 10SM CLR 03/M02 A3022 RMK AO2 T00311016
KF46 150815Z AUTO 00000KT 10SM CLR 05/M01 A3023 RMK AO2 T00451015
KF46 150755Z AUTO 00000KT 10SM CLR 04/M02 A3022 RMK AO2 T00411016
KF46 150735Z AUTO 00000KT 10SM CLR 04/M02 A3022 RMK AO2 T00421020
KF46 150715Z AUTO 00000KT 10SM CLR 04/M01 A3022 RMK AO2 T00421013
KF46 150655Z AUTO 32004KT 10SM CLR 05/M02 A3022 RMK AO2 T00501017
KF46 150635Z AUTO 29003KT 10SM CLR 05/M02 A3022 RMK AO2 T00541018
KF46 150615Z AUTO 00000KT 10SM CLR 06/M02 A3021 RMK AO2 T00561020
KF46 150555Z AUTO 34004KT 10SM CLR 06/M02 A3022 RMK AO2 T00601020 10110 20050 401600017
KF46 150535Z AUTO 34005KT 10SM CLR 06/M02 A3022 RMK AO2 T00601020
KF46 150515Z AUTO 35005KT 10SM CLR 06/M02 A3022 RMK AO2 T00601021
KF46 150455Z AUTO 35005KT 10SM CLR 06/M02 A3023 RMK AO2 T00581022
KF46 150435Z AUTO 36004KT 10SM CLR 05/M02 A3022 RMK AO2 T00511023
KF46 150415Z AUTO 35004KT 10SM CLR 05/M02 A3022 RMK AO2 T00541020
KF46 150355Z AUTO 00000KT 10SM CLR 06/M02 A3021 RMK AO2 T00561020
KF46 150335Z AUTO 36003KT 10SM CLR 06/M02 A3019 RMK AO2 T00591022
KF46 150315Z AUTO 36004KT 10SM CLR 06/M02 A3018 RMK AO2 T00561024
KF46 150255Z AUTO 01004KT 10SM CLR 06/M02 A3018 RMK AO2 T00621019
KF46 150235Z AUTO 00000KT 10SM CLR 07/M02 A3018 RMK AO2 T00701025
KF46 150215Z AUTO 01004KT 10SM CLR 07/M02 A3017 RMK AO2 T00701021
KF46 150155Z AUTO 01005KT 10SM CLR 08/M01 A3016 RMK AO2 T00761015
KF46 150135Z AUTO 01004KT 10SM CLR 08/M02 A3015 RMK AO2 T00811017
KF46 150115Z AUTO 35006KT 10SM CLR 09/M02 A3014 RMK AO2 T00901017
KF46 150055Z AUTO 35005KT 10SM CLR 10/M02 A3013 RMK AO2 T00981017
KF46 150035Z AUTO 35008G15KT 10SM CLR 11/M02 A3012 RMK AO2 T01051016
KF46 150015Z AUTO 35008G15KT 10SM CLR 11/M01 A3010 RMK AO2 T01071010
KF46 142355Z AUTO 34010KT 10SM CLR 11/M01 A3010 RMK AO2 T01101007 10160 20110
KF46 142335Z AUTO 34009KT 10SM CLR 11/00 A3008 RMK AO2 T01131005
KF46 142315Z AUTO 34009G14KT 10SM CLR 12/M01 A3008 RMK AO2 T01201010
KF46 142255Z AUTO 36009G17KT 10SM CLR 12/M02 A3008 RMK AO2 T01241017
KF46 142235Z AUTO 35011G17KT 10SM CLR 13/M02 A3006 RMK AO2 T01321018
KF46 142215Z AUTO 36011G16KT 10SM CLR 14/M02 A3005 RMK AO2 T01391020
KF46 142155Z AUTO 34011G18KT 300V360 10SM CLR 15/M03 A3005 RMK AO2 T01451027
KF46 142135Z AUTO 35011G19KT 10SM CLR 15/M02 A3004 RMK AO2 T01491020
KF46 142115Z AUTO 36010G17KT 10SM CLR 15/M02 A3005 RMK AO2 T01511016
KF46 142055Z AUTO 35010G17KT 10SM CLR 15/M02 A3003 RMK AO2 T01501016
KF46 142035Z AUTO 35012G19KT 10SM CLR 15/M02 A3003 RMK AO2 T01521018
KF46 142015Z AUTO 35010G15KT 10SM CLR 16/M01 A3003 RMK AO2 T01571014
KF46 141955Z AUTO 34014G18KT 10SM CLR 16/M01 A3003 RMK AO2 T01561015
KF46 141935Z AUTO 36011G17KT 330V030 10SM CLR 16/M01 A3003 RMK AO2 T01591011
KF46 141915Z AUTO 01012G19KT 10SM CLR 16/M01 A3004 RMK AO2 T01551014
KF46 141855Z AUTO 02013G19KT 10SM CLR 16/M01 A3004 RMK AO2 T01551011
KF46 141835Z AUTO 36011G18KT 10SM CLR 16/M01 A3004 RMK AO2 T01551008
KF46 141815Z AUTO 01010G18KT 10SM CLR 15/M01 A3006 RMK AO2 T01531007
KF46 141755Z AUTO 01013G18KT 10SM CLR 15/00 A3007 RMK AO2 T01531004 10154 20034
KF46 141735Z AUTO 01013G20KT 10SM CLR 15/M01 A3007 RMK AO2 T01461006
KF46 141715Z AUTO 01012G21KT 10SM CLR 14/M01 A3007 RMK AO2 T01401009
KF46 141655Z AUTO 36012G18KT 10SM CLR 14/M01 A3007 RMK AO2 T01361009
KF46 141635Z AUTO 35012G17KT 10SM CLR 13/M01 A3007 RMK AO2 T01321007
KF46 141615Z AUTO 36008G17KT 10SM CLR 13/M01 A3006 RMK AO2 T01251007
KF46 141555Z AUTO 02011G18KT 10SM CLR 12/M01 A3005 RMK AO2 T01151010
KF46 141535Z AUTO 01008KT 10SM CLR 10/M01 A3005 RMK AO2 T01031008
KF46 141515Z AUTO 01008KT 10SM CLR 09/M01 A3004 RMK AO2 T00891010
KF46 141455Z AUTO 01007KT 10SM CLR 07/M01 A3003 RMK AO2 T00691015
KF46 141435Z AUTO 01007KT 10SM CLR 06/M02 A3002 RMK AO2 T00601020
KF46 141415Z AUTO 10SM CLR 06/M02 A3000 RMK AO2 T00581020
KF46 141355Z AUTO 36010KT 10SM CLR 06/M02 A3000 RMK AO2 T00561021
KF46 141335Z AUTO 36008KT 10SM CLR 05/M02 A2998 RMK AO2 T00531019
KF46 141315Z AUTO 01007KT 10SM CLR 05/M02 A2998 RMK AO2 T00541016
KF46 141255Z AUTO 01007KT 10SM CLR 05/M01 A2997 RMK AO2 T00531013
KF46 141235Z AUTO 01006KT 10SM CLR 05/M01 A2996 RMK AO2 T00511011
KF46 141215Z AUTO 01006KT 10SM CLR 04/M01 A2995 RMK AO2 T00421007
KF46 141155Z AUTO 36004KT 10SM CLR 03/01 A2994 RMK AO2 T00320010 10073 20017
KF46 141135Z AUTO 35003KT 10SM CLR 04/02 A2993 RMK AO2 T00360023
KF46 141115Z AUTO 00000KT 10SM CLR 03/02 A2992 RMK AO2 T00290016
KF46 141055Z AUTO 35005KT 10SM CLR 03/01 A2991 RMK AO2 T00260012
KF46 141035Z AUTO 33004KT 10SM CLR 04/00 A2992 RMK AO2 T00380000
KF46 141015Z AUTO 00000KT 10SM CLR 03/00 A2991 RMK AO2 T00320000
KF46 140955Z AUTO 00000KT 10SM CLR 04/00 A2991 RMK AO2 T00390002
KF46 140935Z AUTO 00000KT 10SM CLR 04/01 A2990 RMK AO2 T00370005
KF46 140915Z AUTO 00000KT 10SM CLR 06/00 A2991 RMK AO2 T00550000
KF46 140855Z AUTO 19004KT 10SM CLR 06/00 A2991 RMK AO2 T00570000
KF46 140835Z AUTO 18003KT 10SM CLR 05/00 A2990 RMK AO2 T00510001
KF46 140815Z AUTO 00000KT 10SM CLR 05/00 A2990 RMK AO2 T00471001